South Lake Tahoe, CA

1:21 PM PST on November 22, 2014 (GMT -0800)
North Upper Truckee | Change Station
CLOSE
Current Station
Personal Weather Station
Location: South Lake Tahoe, CA
Elevation: 6549 ft
Nearby Weather Stations
Active Advisory: Wind Advisory

Elev 6549 ft 38.86 °N, 120.04 °W | Updated 8 seconds ago

Overcast
Overcast
41.9 °F
Feels Like 39 °F
N
4.7
Wind Variable Wind from ESE
Gusts 11.0 mph

Today
High -- | Low -- °F
--% Chance of Precip.
Yesterday
High -- | Low -- °F
Precip. -- in
6:50 AM 4:41 PM
New Moon, 0% visible
Pressure 30.05 in
Visibility 10.0 miles
Clouds Mostly Cloudy 2700 ft
Mostly Cloudy 3400 ft
Windchill 39 °F
Dew Point 37 °F
Humidity 82%
Rainfall 1.07 in
Snow Depth Not available.
UV 2 out of 12
Pollen 2.60 out of 12
Air Quality Not available.
Flu Activity Not available.
SPECI KTVL 222103Z AUTO 21011G28KT 180V260 10SM -RA BKN027 BKN034 08/01 A3005 RMK AO2 PK WND 19028/2057 P0000 T00830011

More Conditions Fewer Conditions

Pressure 30.05 in
Visibility 10.0 miles
Clouds Mostly Cloudy 2700 ft
Mostly Cloudy 3400 ft
Windchill 39 °F
Dew Point 37 °F
Humidity 82%
Rainfall 1.07 in
Snow Depth Not available.
UV 2 out of 12
Pollen 2.60 out of 12
Air Quality Not available.
Flu Activity Not available.
SPECI KTVL 222103Z AUTO 21011G28KT 180V260 10SM -RA BKN027 BKN034 08/01 A3005 RMK AO2 PK WND 19028/2057 P0000 T00830011

More Conditions Fewer Conditions

10-Day Weather Forecast

Almanac

Astronomy

Nov. 22, 2014 Rise Set
Actual Time
Civil Twilight
Nautical Twilight
Astronomical Twilight
Moon
Length of Visible Light
Length of Day
Tomorrow will be .
, % of the Moon is Illuminated

Today's Extremes

State Highs State Lows

Community

WunderPhotos

Upload Photos

1,772,911 photos uploaded!

WunderBlogs® & News

Nearby

Air Quality

  Air Quality AQ Index Pollutant
Not available.

Snow Depth

Station Depth Elevation

Earthquake Activity

City Distance Mag. Time & Date
Minimum magnitude displayed is 2.5.

Coastal Water Temperatures

Place Temperature

Nearby Weather Stations